sensor_id;sensor_type;location;lat;lon;timestamp;P1;durP1;ratioP1;P2;durP2;ratioP2
41677;SDS011;27364;49.026;8.712;2022-08-03T00:00:37;3.33;;;2.40;;
41677;SDS011;27364;49.026;8.712;2022-08-03T00:03:03;3.03;;;2.22;;
41677;SDS011;27364;49.026;8.712;2022-08-03T00:05:29;4.72;;;2.50;;
41677;SDS011;27364;49.026;8.712;2022-08-03T00:07:59;3.30;;;2.30;;
41677;SDS011;27364;49.026;8.712;2022-08-03T00:10:25;3.65;;;2.35;;
41677;SDS011;27364;49.026;8.712;2022-08-03T00:12:51;4.45;;;2.58;;
41677;SDS011;27364;49.026;8.712;2022-08-03T00:15:17;3.28;;;2.35;;
41677;SDS011;27364;49.026;8.712;2022-08-03T00:17:43;3.30;;;2.47;;
41677;SDS011;27364;49.026;8.712;2022-08-03T00:20:09;5.78;;;2.50;;
41677;SDS011;27364;49.026;8.712;2022-08-03T00:22:37;3.88;;;2.47;;
41677;SDS011;27364;49.026;8.712;2022-08-03T00:25:03;4.18;;;2.75;;
41677;SDS011;27364;49.026;8.712;2022-08-03T00:27:28;3.80;;;2.50;;
41677;SDS011;27364;49.026;8.712;2022-08-03T00:29:54;4.13;;;2.53;;
41677;SDS011;27364;49.026;8.712;2022-08-03T00:32:19;3.75;;;2.50;;
41677;SDS011;27364;49.026;8.712;2022-08-03T00:34:45;3.60;;;2.30;;
41677;SDS011;27364;49.026;8.712;2022-08-03T00:37:11;3.35;;;2.42;;
41677;SDS011;27364;49.026;8.712;2022-08-03T00:39:36;3.63;;;2.58;;
41677;SDS011;27364;49.026;8.712;2022-08-03T00:42:02;4.18;;;2.47;;
41677;SDS011;27364;49.026;8.712;2022-08-03T00:44:29;5.88;;;2.70;;
41677;SDS011;27364;49.026;8.712;2022-08-03T00:46:54;3.22;;;2.20;;
41677;SDS011;27364;49.026;8.712;2022-08-03T00:49:20;3.55;;;2.60;;
41677;SDS011;27364;49.026;8.712;2022-08-03T00:51:46;3.60;;;2.53;;
41677;SDS011;27364;49.026;8.712;2022-08-03T00:54:12;4.15;;;2.38;;
41677;SDS011;27364;49.026;8.712;2022-08-03T00:56:41;4.40;;;2.65;;
41677;SDS011;27364;49.026;8.712;2022-08-03T00:59:08;4.15;;;2.60;;
41677;SDS011;27364;49.026;8.712;2022-08-03T01:01:37;3.78;;;2.50;;
41677;SDS011;27364;49.026;8.712;2022-08-03T01:04:05;4.20;;;2.40;;
41677;SDS011;27364;49.026;8.712;2022-08-03T01:06:57;4.65;;;2.50;;
41677;SDS011;27364;49.026;8.712;2022-08-03T01:09:37;4.65;;;2.63;;
41677;SDS011;27364;49.026;8.712;2022-08-03T01:17:58;3.50;;;2.50;;
41677;SDS011;27364;49.026;8.712;2022-08-03T01:20:36;3.70;;;2.83;;
41677;SDS011;27364;49.026;8.712;2022-08-03T01:32:02;5.23;;;2.90;;
41677;SDS011;27364;49.026;8.712;2022-08-03T01:34:40;4.28;;;2.70;;
41677;SDS011;27364;49.026;8.712;2022-08-03T01:37:11;4.90;;;2.67;;
41677;SDS011;27364;49.026;8.712;2022-08-03T01:39:40;4.80;;;2.97;;
41677;SDS011;27364;49.026;8.712;2022-08-03T01:42:09;3.80;;;3.00;;
41677;SDS011;27364;49.026;8.712;2022-08-03T01:44:39;4.70;;;2.97;;
41677;SDS011;27364;49.026;8.712;2022-08-03T01:47:06;4.93;;;2.88;;
41677;SDS011;27364;49.026;8.712;2022-08-03T01:49:34;6.00;;;2.83;;
41677;SDS011;27364;49.026;8.712;2022-08-03T01:52:03;3.65;;;2.53;;
41677;SDS011;27364;49.026;8.712;2022-08-03T01:54:29;7.07;;;2.75;;
41677;SDS011;27364;49.026;8.712;2022-08-03T01:56:58;3.67;;;2.88;;
41677;SDS011;27364;49.026;8.712;2022-08-03T01:59:24;4.32;;;2.80;;
41677;SDS011;27364;49.026;8.712;2022-08-03T02:01:51;3.45;;;2.72;;
41677;SDS011;27364;49.026;8.712;2022-08-03T02:04:18;3.80;;;2.90;;
41677;SDS011;27364;49.026;8.712;2022-08-03T02:06:46;4.70;;;2.85;;
41677;SDS011;27364;49.026;8.712;2022-08-03T02:09:13;5.10;;;2.90;;
41677;SDS011;27364;49.026;8.712;2022-08-03T02:11:41;3.58;;;2.70;;
41677;SDS011;27364;49.026;8.712;2022-08-03T02:14:09;5.07;;;2.85;;
41677;SDS011;27364;49.026;8.712;2022-08-03T02:16:36;4.30;;;2.90;;
41677;SDS011;27364;49.026;8.712;2022-08-03T02:19:03;4.32;;;2.80;;
41677;SDS011;27364;49.026;8.712;2022-08-03T02:21:30;4.35;;;3.05;;
41677;SDS011;27364;49.026;8.712;2022-08-03T02:23:59;6.28;;;3.10;;
41677;SDS011;27364;49.026;8.712;2022-08-03T02:26:26;4.32;;;2.85;;
41677;SDS011;27364;49.026;8.712;2022-08-03T02:28:53;3.88;;;2.83;;
41677;SDS011;27364;49.026;8.712;2022-08-03T02:31:22;3.45;;;2.95;;
41677;SDS011;27364;49.026;8.712;2022-08-03T02:33:52;6.13;;;3.40;;
41677;SDS011;27364;49.026;8.712;2022-08-03T02:36:24;5.82;;;3.03;;
41677;SDS011;27364;49.026;8.712;2022-08-03T02:38:56;5.13;;;3.33;;
41677;SDS011;27364;49.026;8.712;2022-08-03T02:41:34;4.07;;;2.75;;
41677;SDS011;27364;49.026;8.712;2022-08-03T02:44:15;6.25;;;3.50;;
41677;SDS011;27364;49.026;8.712;2022-08-03T02:46:45;6.25;;;3.45;;
41677;SDS011;27364;49.026;8.712;2022-08-03T02:49:13;4.13;;;2.72;;
41677;SDS011;27364;49.026;8.712;2022-08-03T02:51:42;4.50;;;3.10;;
41677;SDS011;27364;49.026;8.712;2022-08-03T02:54:11;5.25;;;2.97;;
41677;SDS011;27364;49.026;8.712;2022-08-03T02:56:40;4.47;;;3.00;;
41677;SDS011;27364;49.026;8.712;2022-08-03T02:59:08;5.22;;;3.42;;
41677;SDS011;27364;49.026;8.712;2022-08-03T03:01:36;4.53;;;3.30;;
41677;SDS011;27364;49.026;8.712;2022-08-03T03:04:03;4.47;;;3.33;;
41677;SDS011;27364;49.026;8.712;2022-08-03T03:06:30;4.65;;;3.05;;
41677;SDS011;27364;49.026;8.712;2022-08-03T03:08:56;4.13;;;2.90;;
41677;SDS011;27364;49.026;8.712;2022-08-03T03:11:24;5.45;;;3.25;;
41677;SDS011;27364;49.026;8.712;2022-08-03T03:13:51;3.80;;;3.05;;
41677;SDS011;27364;49.026;8.712;2022-08-03T03:16:17;4.10;;;3.22;;
41677;SDS011;27364;49.026;8.712;2022-08-03T03:18:44;4.93;;;3.20;;
41677;SDS011;27364;49.026;8.712;2022-08-03T03:23:38;3.63;;;2.83;;
41677;SDS011;27364;49.026;8.712;2022-08-03T03:26:05;5.82;;;3.05;;
41677;SDS011;27364;49.026;8.712;2022-08-03T03:28:33;3.85;;;2.97;;
41677;SDS011;27364;49.026;8.712;2022-08-03T03:31:01;4.68;;;3.20;;
41677;SDS011;27364;49.026;8.712;2022-08-03T03:33:28;3.90;;;3.17;;
41677;SDS011;27364;49.026;8.712;2022-08-03T03:35:54;4.70;;;3.20;;
41677;SDS011;27364;49.026;8.712;2022-08-03T03:38:20;6.45;;;3.28;;
41677;SDS011;27364;49.026;8.712;2022-08-03T03:40:47;3.70;;;2.92;;
41677;SDS011;27364;49.026;8.712;2022-08-03T03:43:13;4.63;;;3.20;;
41677;SDS011;27364;49.026;8.712;2022-08-03T03:45:39;8.00;;;3.40;;
41677;SDS011;27364;49.026;8.712;2022-08-03T03:48:06;7.53;;;3.30;;
41677;SDS011;27364;49.026;8.712;2022-08-03T03:50:34;4.03;;;3.28;;
41677;SDS011;27364;49.026;8.712;2022-08-03T03:53:00;7.88;;;3.40;;
41677;SDS011;27364;49.026;8.712;2022-08-03T03:55:27;6.88;;;3.35;;
41677;SDS011;27364;49.026;8.712;2022-08-03T03:57:53;5.15;;;3.45;;
41677;SDS011;27364;49.026;8.712;2022-08-03T04:00:19;6.75;;;3.40;;
41677;SDS011;27364;49.026;8.712;2022-08-03T04:02:44;5.57;;;3.47;;
41677;SDS011;27364;49.026;8.712;2022-08-03T04:05:10;5.82;;;3.53;;
41677;SDS011;27364;49.026;8.712;2022-08-03T04:08:06;6.95;;;3.40;;
41677;SDS011;27364;49.026;8.712;2022-08-03T04:11:01;5.72;;;3.40;;
41677;SDS011;27364;49.026;8.712;2022-08-03T04:13:56;4.72;;;3.30;;
41677;SDS011;27364;49.026;8.712;2022-08-03T04:16:28;3.85;;;3.10;;
41677;SDS011;27364;49.026;8.712;2022-08-03T04:19:18;4.75;;;3.20;;
41677;SDS011;27364;49.026;8.712;2022-08-03T04:21:46;4.35;;;3.25;;
41677;SDS011;27364;49.026;8.712;2022-08-03T04:24:13;4.80;;;3.50;;
41677;SDS011;27364;49.026;8.712;2022-08-03T04:26:40;5.78;;;3.47;;
41677;SDS011;27364;49.026;8.712;2022-08-03T04:29:07;4.00;;;3.00;;
41677;SDS011;27364;49.026;8.712;2022-08-03T04:31:34;5.18;;;3.20;;
41677;SDS011;27364;49.026;8.712;2022-08-03T04:34:02;5.30;;;3.50;;
41677;SDS011;27364;49.026;8.712;2022-08-03T04:36:30;4.45;;;3.45;;
41677;SDS011;27364;49.026;8.712;2022-08-03T04:38:59;6.53;;;3.72;;
41677;SDS011;27364;49.026;8.712;2022-08-03T04:41:30;6.38;;;3.50;;
41677;SDS011;27364;49.026;8.712;2022-08-03T04:43:59;4.85;;;3.65;;
41677;SDS011;27364;49.026;8.712;2022-08-03T04:46:27;6.07;;;4.00;;
41677;SDS011;27364;49.026;8.712;2022-08-03T04:48:57;6.38;;;4.10;;
41677;SDS011;27364;49.026;8.712;2022-08-03T04:51:23;6.95;;;3.92;;
41677;SDS011;27364;49.026;8.712;2022-08-03T04:53:49;5.10;;;3.80;;
41677;SDS011;27364;49.026;8.712;2022-08-03T04:56:14;5.45;;;3.92;;
41677;SDS011;27364;49.026;8.712;2022-08-03T04:58:40;5.60;;;4.05;;
41677;SDS011;27364;49.026;8.712;2022-08-03T05:01:05;4.90;;;3.72;;
41677;SDS011;27364;49.026;8.712;2022-08-03T05:03:31;6.07;;;3.92;;
41677;SDS011;27364;49.026;8.712;2022-08-03T05:05:57;6.68;;;3.75;;
41677;SDS011;27364;49.026;8.712;2022-08-03T05:08:22;5.40;;;3.45;;
41677;SDS011;27364;49.026;8.712;2022-08-03T05:10:48;7.72;;;3.95;;
41677;SDS011;27364;49.026;8.712;2022-08-03T05:13:14;4.53;;;3.78;;
41677;SDS011;27364;49.026;8.712;2022-08-03T05:15:39;4.90;;;3.63;;
41677;SDS011;27364;49.026;8.712;2022-08-03T05:18:05;5.75;;;3.72;;
41677;SDS011;27364;49.026;8.712;2022-08-03T05:20:31;6.97;;;4.15;;
41677;SDS011;27364;49.026;8.712;2022-08-03T05:22:57;5.00;;;3.55;;
41677;SDS011;27364;49.026;8.712;2022-08-03T05:27:50;6.03;;;4.05;;
41677;SDS011;27364;49.026;8.712;2022-08-03T05:30:15;5.18;;;3.78;;
41677;SDS011;27364;49.026;8.712;2022-08-03T05:32:41;4.65;;;3.80;;
41677;SDS011;27364;49.026;8.712;2022-08-03T05:35:07;5.68;;;3.42;;
41677;SDS011;27364;49.026;8.712;2022-08-03T05:37:32;7.53;;;3.63;;
41677;SDS011;27364;49.026;8.712;2022-08-03T05:39:58;6.40;;;3.63;;
41677;SDS011;27364;49.026;8.712;2022-08-03T05:42:23;7.88;;;3.60;;
41677;SDS011;27364;49.026;8.712;2022-08-03T05:44:49;6.15;;;3.80;;
41677;SDS011;27364;49.026;8.712;2022-08-03T05:47:15;5.50;;;3.28;;
41677;SDS011;27364;49.026;8.712;2022-08-03T05:49:40;5.45;;;3.30;;
41677;SDS011;27364;49.026;8.712;2022-08-03T05:52:06;4.80;;;3.17;;
41677;SDS011;27364;49.026;8.712;2022-08-03T05:54:31;5.63;;;3.30;;
41677;SDS011;27364;49.026;8.712;2022-08-03T05:56:57;3.58;;;2.95;;
41677;SDS011;27364;49.026;8.712;2022-08-03T05:59:23;5.53;;;3.30;;
41677;SDS011;27364;49.026;8.712;2022-08-03T06:01:49;5.53;;;3.22;;
41677;SDS011;27364;49.026;8.712;2022-08-03T06:04:15;4.93;;;2.95;;
41677;SDS011;27364;49.026;8.712;2022-08-03T06:06:40;5.45;;;3.20;;
41677;SDS011;27364;49.026;8.712;2022-08-03T06:09:07;6.85;;;3.28;;
41677;SDS011;27364;49.026;8.712;2022-08-03T06:11:34;3.90;;;2.72;;
41677;SDS011;27364;49.026;8.712;2022-08-03T06:14:00;5.53;;;3.15;;
41677;SDS011;27364;49.026;8.712;2022-08-03T06:16:25;4.60;;;2.70;;
41677;SDS011;27364;49.026;8.712;2022-08-03T06:18:51;4.38;;;2.92;;
41677;SDS011;27364;49.026;8.712;2022-08-03T06:21:16;4.53;;;2.60;;
41677;SDS011;27364;49.026;8.712;2022-08-03T06:23:42;3.40;;;2.30;;
41677;SDS011;27364;49.026;8.712;2022-08-03T06:26:09;3.85;;;2.47;;
41677;SDS011;27364;49.026;8.712;2022-08-03T06:28:35;4.03;;;2.70;;
41677;SDS011;27364;49.026;8.712;2022-08-03T06:31:00;7.07;;;2.63;;
41677;SDS011;27364;49.026;8.712;2022-08-03T06:33:26;4.50;;;2.80;;
41677;SDS011;27364;49.026;8.712;2022-08-03T06:35:52;4.10;;;2.75;;
41677;SDS011;27364;49.026;8.712;2022-08-03T06:38:18;6.18;;;2.75;;
41677;SDS011;27364;49.026;8.712;2022-08-03T06:40:43;4.80;;;2.50;;
41677;SDS011;27364;49.026;8.712;2022-08-03T06:43:09;7.82;;;2.65;;
41677;SDS011;27364;49.026;8.712;2022-08-03T06:45:34;5.85;;;2.50;;
41677;SDS011;27364;49.026;8.712;2022-08-03T06:48:07;4.82;;;2.58;;
41677;SDS011;27364;49.026;8.712;2022-08-03T06:50:34;4.38;;;2.47;;
41677;SDS011;27364;49.026;8.712;2022-08-03T06:53:01;5.10;;;2.67;;
41677;SDS011;27364;49.026;8.712;2022-08-03T06:55:27;5.15;;;2.70;;
41677;SDS011;27364;49.026;8.712;2022-08-03T06:57:53;9.98;;;2.58;;
41677;SDS011;27364;49.026;8.712;2022-08-03T07:00:19;4.47;;;2.50;;
41677;SDS011;27364;49.026;8.712;2022-08-03T07:02:45;4.78;;;2.80;;
41677;SDS011;27364;49.026;8.712;2022-08-03T07:05:11;7.75;;;2.70;;
41677;SDS011;27364;49.026;8.712;2022-08-03T07:07:37;9.23;;;3.33;;
41677;SDS011;27364;49.026;8.712;2022-08-03T07:10:04;5.72;;;2.55;;
41677;SDS011;27364;49.026;8.712;2022-08-03T07:12:31;5.20;;;2.90;;
41677;SDS011;27364;49.026;8.712;2022-08-03T07:14:58;8.75;;;2.83;;
41677;SDS011;27364;49.026;8.712;2022-08-03T07:17:24;6.85;;;2.42;;
41677;SDS011;27364;49.026;8.712;2022-08-03T07:19:50;8.50;;;2.80;;
41677;SDS011;27364;49.026;8.712;2022-08-03T07:22:16;8.38;;;2.88;;
41677;SDS011;27364;49.026;8.712;2022-08-03T07:24:41;7.40;;;2.80;;
41677;SDS011;27364;49.026;8.712;2022-08-03T07:27:07;7.32;;;2.88;;
41677;SDS011;27364;49.026;8.712;2022-08-03T07:29:33;5.78;;;2.22;;
41677;SDS011;27364;49.026;8.712;2022-08-03T07:31:59;5.28;;;2.55;;
41677;SDS011;27364;49.026;8.712;2022-08-03T07:34:26;7.32;;;2.90;;
41677;SDS011;27364;49.026;8.712;2022-08-03T07:36:51;7.32;;;2.65;;
41677;SDS011;27364;49.026;8.712;2022-08-03T07:39:17;6.50;;;2.50;;
41677;SDS011;27364;49.026;8.712;2022-08-03T07:41:45;4.57;;;2.15;;
41677;SDS011;27364;49.026;8.712;2022-08-03T07:44:11;4.78;;;2.20;;
41677;SDS011;27364;49.026;8.712;2022-08-03T07:46:37;4.20;;;2.42;;
41677;SDS011;27364;49.026;8.712;2022-08-03T07:49:03;4.15;;;2.40;;
41677;SDS011;27364;49.026;8.712;2022-08-03T07:51:29;4.22;;;2.60;;
41677;SDS011;27364;49.026;8.712;2022-08-03T07:53:54;4.72;;;2.42;;
41677;SDS011;27364;49.026;8.712;2022-08-03T07:56:21;6.45;;;2.25;;
41677;SDS011;27364;49.026;8.712;2022-08-03T07:58:49;3.95;;;2.30;;
41677;SDS011;27364;49.026;8.712;2022-08-03T08:01:15;3.88;;;2.47;;
41677;SDS011;27364;49.026;8.712;2022-08-03T08:03:43;4.07;;;2.20;;
41677;SDS011;27364;49.026;8.712;2022-08-03T08:06:09;3.85;;;2.30;;
41677;SDS011;27364;49.026;8.712;2022-08-03T08:08:34;3.30;;;2.10;;
41677;SDS011;27364;49.026;8.712;2022-08-03T08:11:01;3.27;;;2.00;;
41677;SDS011;27364;49.026;8.712;2022-08-03T08:13:27;4.55;;;1.92;;
41677;SDS011;27364;49.026;8.712;2022-08-03T08:15:52;3.33;;;1.90;;
41677;SDS011;27364;49.026;8.712;2022-08-03T08:18:18;3.35;;;1.75;;
41677;SDS011;27364;49.026;8.712;2022-08-03T08:20:43;3.58;;;2.05;;
41677;SDS011;27364;49.026;8.712;2022-08-03T08:23:09;3.63;;;1.80;;
41677;SDS011;27364;49.026;8.712;2022-08-03T08:25:34;3.08;;;2.00;;
41677;SDS011;27364;49.026;8.712;2022-08-03T08:28:00;2.53;;;1.83;;
41677;SDS011;27364;49.026;8.712;2022-08-03T08:30:27;3.53;;;1.85;;
41677;SDS011;27364;49.026;8.712;2022-08-03T08:32:53;2.17;;;1.60;;
41677;SDS011;27364;49.026;8.712;2022-08-03T08:35:19;3.20;;;1.70;;
41677;SDS011;27364;49.026;8.712;2022-08-03T08:37:45;3.13;;;1.70;;
41677;SDS011;27364;49.026;8.712;2022-08-03T08:40:11;2.60;;;1.73;;
41677;SDS011;27364;49.026;8.712;2022-08-03T08:42:40;2.50;;;1.55;;
41677;SDS011;27364;49.026;8.712;2022-08-03T08:45:07;3.13;;;1.70;;
41677;SDS011;27364;49.026;8.712;2022-08-03T08:47:35;2.43;;;1.57;;
41677;SDS011;27364;49.026;8.712;2022-08-03T08:50:03;3.45;;;1.80;;
41677;SDS011;27364;49.026;8.712;2022-08-03T08:52:29;3.70;;;1.70;;
41677;SDS011;27364;49.026;8.712;2022-08-03T08:54:58;4.88;;;1.80;;
41677;SDS011;27364;49.026;8.712;2022-08-03T08:57:30;2.63;;;1.63;;
41677;SDS011;27364;49.026;8.712;2022-08-03T09:00:00;2.97;;;1.70;;
41677;SDS011;27364;49.026;8.712;2022-08-03T09:02:28;2.42;;;1.45;;
41677;SDS011;27364;49.026;8.712;2022-08-03T09:04:55;3.15;;;1.58;;
41677;SDS011;27364;49.026;8.712;2022-08-03T09:07:21;3.08;;;1.73;;
41677;SDS011;27364;49.026;8.712;2022-08-03T09:09:47;2.95;;;1.50;;
41677;SDS011;27364;49.026;8.712;2022-08-03T09:12:13;3.30;;;1.40;;
41677;SDS011;27364;49.026;8.712;2022-08-03T09:14:39;3.15;;;1.60;;
41677;SDS011;27364;49.026;8.712;2022-08-03T09:17:04;3.17;;;1.55;;
41677;SDS011;27364;49.026;8.712;2022-08-03T09:19:31;4.80;;;1.60;;
41677;SDS011;27364;49.026;8.712;2022-08-03T09:22:07;1.83;;;1.30;;
41677;SDS011;27364;49.026;8.712;2022-08-03T09:24:38;3.00;;;1.40;;
41677;SDS011;27364;49.026;8.712;2022-08-03T09:27:19;4.90;;;1.70;;
41677;SDS011;27364;49.026;8.712;2022-08-03T09:29:49;2.63;;;1.73;;
41677;SDS011;27364;49.026;8.712;2022-08-03T09:32:20;3.13;;;1.60;;
41677;SDS011;27364;49.026;8.712;2022-08-03T09:34:47;3.17;;;1.60;;
41677;SDS011;27364;49.026;8.712;2022-08-03T09:37:14;3.97;;;1.70;;
41677;SDS011;27364;49.026;8.712;2022-08-03T09:39:45;3.10;;;1.60;;
41677;SDS011;27364;49.026;8.712;2022-08-03T09:42:15;7.22;;;1.80;;
41677;SDS011;27364;49.026;8.712;2022-08-03T09:44:43;4.70;;;1.48;;
41677;SDS011;27364;49.026;8.712;2022-08-03T09:47:13;3.05;;;1.60;;
41677;SDS011;27364;49.026;8.712;2022-08-03T09:49:41;3.70;;;1.50;;
41677;SDS011;27364;49.026;8.712;2022-08-03T09:52:20;2.38;;;1.52;;
41677;SDS011;27364;49.026;8.712;2022-08-03T09:54:53;2.95;;;1.60;;
41677;SDS011;27364;49.026;8.712;2022-08-03T09:57:23;3.22;;;1.70;;
41677;SDS011;27364;49.026;8.712;2022-08-03T09:59:50;3.95;;;1.40;;
41677;SDS011;27364;49.026;8.712;2022-08-03T10:02:20;3.85;;;1.40;;
41677;SDS011;27364;49.026;8.712;2022-08-03T10:04:50;5.40;;;1.80;;
41677;SDS011;27364;49.026;8.712;2022-08-03T10:07:17;5.18;;;1.55;;
41677;SDS011;27364;49.026;8.712;2022-08-03T10:09:58;3.42;;;1.55;;
41677;SDS011;27364;49.026;8.712;2022-08-03T10:12:24;3.13;;;1.55;;
41677;SDS011;27364;49.026;8.712;2022-08-03T10:14:51;3.83;;;1.50;;
41677;SDS011;27364;49.026;8.712;2022-08-03T10:17:18;2.15;;;1.55;;
41677;SDS011;27364;49.026;8.712;2022-08-03T10:19:44;2.88;;;1.45;;
41677;SDS011;27364;49.026;8.712;2022-08-03T10:22:12;3.63;;;1.70;;
41677;SDS011;27364;49.026;8.712;2022-08-03T10:24:50;5.28;;;1.80;;
41677;SDS011;27364;49.026;8.712;2022-08-03T10:27:19;9.48;;;1.92;;
41677;SDS011;27364;49.026;8.712;2022-08-03T10:29:49;4.82;;;1.40;;
41677;SDS011;27364;49.026;8.712;2022-08-03T10:32:20;3.10;;;1.50;;
41677;SDS011;27364;49.026;8.712;2022-08-03T10:34:51;3.50;;;1.60;;
41677;SDS011;27364;49.026;8.712;2022-08-03T10:37:23;3.55;;;1.58;;
41677;SDS011;27364;49.026;8.712;2022-08-03T10:39:51;3.65;;;1.50;;
41677;SDS011;27364;49.026;8.712;2022-08-03T10:42:19;2.55;;;1.60;;
41677;SDS011;27364;49.026;8.712;2022-08-03T10:44:47;3.40;;;1.65;;
41677;SDS011;27364;49.026;8.712;2022-08-03T10:47:16;2.65;;;1.48;;
41677;SDS011;27364;49.026;8.712;2022-08-03T10:49:42;2.15;;;1.45;;
41677;SDS011;27364;49.026;8.712;2022-08-03T10:52:10;2.33;;;1.30;;
41677;SDS011;27364;49.026;8.712;2022-08-03T10:54:37;2.50;;;1.35;;
41677;SDS011;27364;49.026;8.712;2022-08-03T11:00:10;2.50;;;1.60;;
41677;SDS011;27364;49.026;8.712;2022-08-03T11:05:27;2.90;;;1.50;;
41677;SDS011;27364;49.026;8.712;2022-08-03T11:08:29;2.97;;;1.40;;
41677;SDS011;27364;49.026;8.712;2022-08-03T11:11:23;3.25;;;1.40;;
41677;SDS011;27364;49.026;8.712;2022-08-03T11:16:35;2.80;;;1.65;;
41677;SDS011;27364;49.026;8.712;2022-08-03T11:19:12;3.40;;;1.42;;
41677;SDS011;27364;49.026;8.712;2022-08-03T11:27:22;2.83;;;1.27;;
41677;SDS011;27364;49.026;8.712;2022-08-03T11:37:36;2.28;;;1.35;;
41677;SDS011;27364;49.026;8.712;2022-08-03T11:46:04;2.33;;;1.40;;
41677;SDS011;27364;49.026;8.712;2022-08-03T11:51:02;3.00;;;1.60;;
41677;SDS011;27364;49.026;8.712;2022-08-03T11:53:29;4.38;;;1.90;;
41677;SDS011;27364;49.026;8.712;2022-08-03T11:55:59;2.03;;;1.42;;
41677;SDS011;27364;49.026;8.712;2022-08-03T11:58:25;2.70;;;1.60;;
41677;SDS011;27364;49.026;8.712;2022-08-03T12:00:52;3.15;;;1.42;;
41677;SDS011;27364;49.026;8.712;2022-08-03T12:03:30;4.13;;;1.67;;
41677;SDS011;27364;49.026;8.712;2022-08-03T12:05:56;2.42;;;1.52;;
41677;SDS011;27364;49.026;8.712;2022-08-03T12:10:51;2.90;;;1.40;;
41677;SDS011;27364;49.026;8.712;2022-08-03T12:13:17;2.57;;;1.43;;
41677;SDS011;27364;49.026;8.712;2022-08-03T12:15:47;2.65;;;1.52;;
41677;SDS011;27364;49.026;8.712;2022-08-03T12:18:18;3.58;;;1.40;;
41677;SDS011;27364;49.026;8.712;2022-08-03T12:20:45;4.70;;;1.40;;
41677;SDS011;27364;49.026;8.712;2022-08-03T12:25:38;3.50;;;1.53;;
41677;SDS011;27364;49.026;8.712;2022-08-03T12:28:16;2.53;;;1.70;;
41677;SDS011;27364;49.026;8.712;2022-08-03T12:30:44;1.60;;;1.15;;
41677;SDS011;27364;49.026;8.712;2022-08-03T12:33:16;3.50;;;1.50;;
41677;SDS011;27364;49.026;8.712;2022-08-03T12:36:08;3.08;;;1.40;;
41677;SDS011;27364;49.026;8.712;2022-08-03T12:41:01;2.75;;;1.33;;
41677;SDS011;27364;49.026;8.712;2022-08-03T12:43:29;3.63;;;1.40;;
41677;SDS011;27364;49.026;8.712;2022-08-03T12:48:56;3.38;;;1.27;;
41677;SDS011;27364;49.026;8.712;2022-08-03T12:51:30;4.07;;;1.60;;
41677;SDS011;27364;49.026;8.712;2022-08-03T12:53:58;5.85;;;1.58;;
41677;SDS011;27364;49.026;8.712;2022-08-03T12:56:24;2.60;;;1.40;;
41677;SDS011;27364;49.026;8.712;2022-08-03T12:58:50;3.50;;;1.42;;
41677;SDS011;27364;49.026;8.712;2022-08-03T13:01:17;2.22;;;1.40;;
41677;SDS011;27364;49.026;8.712;2022-08-03T13:03:44;2.00;;;1.27;;
41677;SDS011;27364;49.026;8.712;2022-08-03T13:06:11;2.63;;;1.60;;
41677;SDS011;27364;49.026;8.712;2022-08-03T13:08:38;3.03;;;1.50;;
41677;SDS011;27364;49.026;8.712;2022-08-03T13:11:16;2.28;;;1.48;;
41677;SDS011;27364;49.026;8.712;2022-08-03T13:13:42;1.80;;;1.20;;
41677;SDS011;27364;49.026;8.712;2022-08-03T13:16:07;3.50;;;1.47;;
41677;SDS011;27364;49.026;8.712;2022-08-03T13:18:33;2.90;;;1.40;;
41677;SDS011;27364;49.026;8.712;2022-08-03T13:20:58;3.10;;;1.50;;
41677;SDS011;27364;49.026;8.712;2022-08-03T13:23:24;1.90;;;1.10;;
41677;SDS011;27364;49.026;8.712;2022-08-03T13:25:50;2.43;;;1.40;;
41677;SDS011;27364;49.026;8.712;2022-08-03T13:28:15;1.77;;;1.20;;
41677;SDS011;27364;49.026;8.712;2022-08-03T13:30:41;1.90;;;1.30;;
41677;SDS011;27364;49.026;8.712;2022-08-03T13:33:07;2.73;;;1.43;;
41677;SDS011;27364;49.026;8.712;2022-08-03T13:35:32;2.15;;;1.42;;
41677;SDS011;27364;49.026;8.712;2022-08-03T13:37:58;2.83;;;1.27;;
41677;SDS011;27364;49.026;8.712;2022-08-03T13:40:23;2.57;;;1.40;;
41677;SDS011;27364;49.026;8.712;2022-08-03T13:42:49;1.80;;;1.20;;
41677;SDS011;27364;49.026;8.712;2022-08-03T13:45:15;4.00;;;1.50;;
41677;SDS011;27364;49.026;8.712;2022-08-03T13:47:40;2.70;;;1.40;;
41677;SDS011;27364;49.026;8.712;2022-08-03T13:50:06;1.90;;;1.30;;
41677;SDS011;27364;49.026;8.712;2022-08-03T13:52:33;2.90;;;1.40;;
41677;SDS011;27364;49.026;8.712;2022-08-03T13:54:59;3.72;;;1.40;;
41677;SDS011;27364;49.026;8.712;2022-08-03T13:57:26;2.63;;;1.45;;
41677;SDS011;27364;49.026;8.712;2022-08-03T13:59:52;2.10;;;1.30;;
41677;SDS011;27364;49.026;8.712;2022-08-03T14:02:17;7.93;;;1.80;;
41677;SDS011;27364;49.026;8.712;2022-08-03T14:04:43;3.00;;;1.43;;
41677;SDS011;27364;49.026;8.712;2022-08-03T14:07:08;3.07;;;1.47;;
41677;SDS011;27364;49.026;8.712;2022-08-03T14:09:34;2.20;;;1.30;;
41677;SDS011;27364;49.026;8.712;2022-08-03T14:11:59;2.70;;;1.30;;
41677;SDS011;27364;49.026;8.712;2022-08-03T14:14:25;2.00;;;1.30;;
41677;SDS011;27364;49.026;8.712;2022-08-03T14:16:50;3.87;;;1.30;;
41677;SDS011;27364;49.026;8.712;2022-08-03T14:19:16;1.73;;;1.30;;
41677;SDS011;27364;49.026;8.712;2022-08-03T14:21:41;2.77;;;1.40;;
41677;SDS011;27364;49.026;8.712;2022-08-03T14:24:07;2.30;;;1.50;;
41677;SDS011;27364;49.026;8.712;2022-08-03T14:26:32;2.93;;;1.60;;
41677;SDS011;27364;49.026;8.712;2022-08-03T14:28:58;2.53;;;1.43;;
41677;SDS011;27364;49.026;8.712;2022-08-03T14:31:24;2.27;;;1.47;;
41677;SDS011;27364;49.026;8.712;2022-08-03T14:33:50;2.55;;;1.60;;
41677;SDS011;27364;49.026;8.712;2022-08-03T14:36:16;2.67;;;1.33;;
41677;SDS011;27364;49.026;8.712;2022-08-03T14:38:41;3.53;;;1.40;;
41677;SDS011;27364;49.026;8.712;2022-08-03T14:41:07;2.73;;;1.40;;
41677;SDS011;27364;49.026;8.712;2022-08-03T14:43:32;3.40;;;1.47;;
41677;SDS011;27364;49.026;8.712;2022-08-03T14:45:58;2.87;;;1.60;;
41677;SDS011;27364;49.026;8.712;2022-08-03T14:48:23;3.20;;;1.20;;
41677;SDS011;27364;49.026;8.712;2022-08-03T14:50:51;1.83;;;1.30;;
41677;SDS011;27364;49.026;8.712;2022-08-03T14:53:17;2.10;;;1.30;;
41677;SDS011;27364;49.026;8.712;2022-08-03T14:55:43;2.58;;;1.30;;
41677;SDS011;27364;49.026;8.712;2022-08-03T14:58:13;2.47;;;1.70;;
41677;SDS011;27364;49.026;8.712;2022-08-03T15:00:39;3.23;;;1.50;;
41677;SDS011;27364;49.026;8.712;2022-08-03T15:03:04;2.67;;;1.27;;
41677;SDS011;27364;49.026;8.712;2022-08-03T15:05:30;3.13;;;1.47;;
41677;SDS011;27364;49.026;8.712;2022-08-03T15:07:56;2.40;;;1.33;;
41677;SDS011;27364;49.026;8.712;2022-08-03T15:10:21;2.03;;;1.37;;
41677;SDS011;27364;49.026;8.712;2022-08-03T15:12:47;2.30;;;1.47;;
41677;SDS011;27364;49.026;8.712;2022-08-03T15:15:12;1.80;;;1.20;;
41677;SDS011;27364;49.026;8.712;2022-08-03T15:17:38;2.37;;;1.63;;
41677;SDS011;27364;49.026;8.712;2022-08-03T15:20:04;3.00;;;1.60;;
41677;SDS011;27364;49.026;8.712;2022-08-03T15:22:30;2.15;;;1.40;;
41677;SDS011;27364;49.026;8.712;2022-08-03T15:24:56;2.97;;;1.45;;
41677;SDS011;27364;49.026;8.712;2022-08-03T15:27:22;3.37;;;1.87;;
41677;SDS011;27364;49.026;8.712;2022-08-03T15:29:48;1.80;;;1.30;;
41677;SDS011;27364;49.026;8.712;2022-08-03T15:32:13;5.10;;;1.60;;
41677;SDS011;27364;49.026;8.712;2022-08-03T15:34:39;2.37;;;1.43;;
41677;SDS011;27364;49.026;8.712;2022-08-03T15:37:05;4.40;;;1.40;;
41677;SDS011;27364;49.026;8.712;2022-08-03T15:39:31;2.00;;;1.40;;
41677;SDS011;27364;49.026;8.712;2022-08-03T15:41:56;1.83;;;1.30;;
41677;SDS011;27364;49.026;8.712;2022-08-03T15:44:22;3.37;;;1.50;;
41677;SDS011;27364;49.026;8.712;2022-08-03T15:46:47;3.00;;;1.50;;
41677;SDS011;27364;49.026;8.712;2022-08-03T15:49:16;2.83;;;1.50;;
41677;SDS011;27364;49.026;8.712;2022-08-03T15:51:41;3.80;;;1.50;;